createdAt,value
2023-09-07T00:02:05.522Z,4.45
2023-09-07T00:04:32.469Z,3.95
2023-09-07T00:07:00.408Z,4.20
2023-09-07T00:09:28.265Z,3.97
2023-09-07T00:11:55.040Z,4.50
2023-09-07T00:14:21.755Z,4.55
2023-09-07T00:16:48.573Z,4.38
2023-09-07T00:19:15.404Z,3.83
2023-09-07T00:21:42.099Z,4.00
2023-09-07T00:24:09.008Z,3.67
2023-09-07T00:26:35.745Z,4.05
2023-09-07T00:29:02.498Z,4.47
2023-09-07T00:31:29.467Z,4.13
2023-09-07T00:33:56.314Z,3.90
2023-09-07T00:36:23.101Z,4.25
2023-09-07T00:38:50.177Z,4.30
2023-09-07T00:41:16.901Z,3.90
2023-09-07T00:43:43.670Z,4.00
2023-09-07T00:46:10.774Z,3.92
2023-09-07T00:48:37.844Z,3.95
2023-09-07T00:51:04.645Z,3.60
2023-09-07T00:53:31.614Z,3.92
2023-09-07T00:55:59.479Z,3.63
2023-09-07T00:58:26.371Z,4.10
2023-09-07T01:00:53.199Z,3.60
2023-09-07T01:03:19.931Z,3.58
2023-09-07T01:06:04.033Z,3.90
2023-09-07T01:08:42.280Z,4.03
2023-09-07T01:11:21.415Z,3.72
2023-09-07T01:13:48.208Z,3.88
2023-09-07T01:16:15.177Z,3.80
2023-09-07T01:18:43.147Z,3.90
2023-09-07T01:21:12.326Z,3.58
2023-09-07T01:23:42.493Z,4.00
2023-09-07T01:26:10.448Z,3.90
2023-09-07T01:28:41.169Z,3.78
2023-09-07T01:31:08.125Z,3.83
2023-09-07T01:33:34.926Z,3.63
2023-09-07T01:36:01.855Z,4.43
2023-09-07T01:38:28.702Z,3.83
2023-09-07T01:40:55.669Z,3.60
2023-09-07T01:43:22.592Z,4.40
2023-09-07T01:45:49.274Z,3.47
2023-09-07T01:48:16.552Z,3.80
2023-09-07T01:50:43.411Z,3.72
2023-09-07T01:53:10.176Z,3.60
2023-09-07T01:55:36.969Z,3.70
2023-09-07T01:58:03.994Z,3.53
2023-09-07T02:00:31.044Z,3.70
2023-09-07T02:02:57.994Z,4.05
2023-09-07T02:05:24.890Z,3.95
2023-09-07T02:07:51.799Z,4.28
2023-09-07T02:10:18.680Z,3.65
2023-09-07T02:12:47.296Z,4.00
2023-09-07T02:15:14.034Z,3.30
2023-09-07T02:17:40.978Z,3.50
2023-09-07T02:20:11.857Z,3.53
2023-09-07T02:25:06.944Z,3.63
2023-09-07T02:27:34.754Z,3.53
2023-09-07T02:30:02.698Z,3.55
2023-09-07T02:32:29.616Z,3.85
2023-09-07T02:34:56.374Z,3.58
2023-09-07T02:37:23.150Z,3.53
2023-09-07T02:39:50.063Z,3.50
2023-09-07T02:42:16.824Z,3.70
2023-09-07T02:44:43.579Z,3.65
2023-09-07T02:47:12.977Z,3.47
2023-09-07T02:49:39.976Z,3.67
2023-09-07T02:52:06.830Z,3.15
2023-09-07T02:54:33.599Z,3.45
2023-09-07T02:57:00.423Z,3.50
2023-09-07T02:59:27.335Z,3.50
2023-09-07T03:01:54.232Z,3.40
2023-09-07T03:04:20.994Z,3.70
2023-09-07T03:06:47.684Z,3.67
2023-09-07T03:09:15.367Z,3.60
2023-09-07T03:11:42.203Z,3.33
2023-09-07T03:14:09.059Z,4.28
2023-09-07T03:16:35.960Z,3.45
2023-09-07T03:19:03.156Z,3.22
2023-09-07T03:21:30.747Z,3.28
2023-09-07T03:23:59.003Z,3.40
2023-09-07T03:26:25.879Z,3.15
2023-09-07T03:28:53.531Z,3.20
2023-09-07T03:31:20.651Z,3.28
2023-09-07T03:33:47.595Z,3.35
2023-09-07T03:36:17.469Z,3.50
2023-09-07T03:38:44.511Z,3.75
2023-09-07T03:41:11.440Z,3.55
2023-09-07T03:43:38.295Z,3.30
2023-09-07T03:46:05.167Z,3.15
2023-09-07T03:48:32.334Z,3.38
2023-09-07T03:50:59.480Z,3.47
2023-09-07T03:53:26.358Z,3.17
2023-09-07T03:55:53.488Z,3.45
2023-09-07T03:58:20.275Z,3.42
2023-09-07T04:00:47.085Z,3.20
2023-09-07T04:03:14.223Z,3.47
2023-09-07T04:05:41.216Z,3.40
2023-09-07T04:08:08.556Z,3.05
2023-09-07T04:10:39.033Z,3.20
2023-09-07T04:13:06.472Z,3.50
2023-09-07T04:15:46.559Z,3.53
2023-09-07T04:18:16.346Z,3.33
2023-09-07T04:20:44.201Z,2.85
2023-09-07T04:23:11.067Z,3.03
2023-09-07T04:25:39.808Z,3.67
2023-09-07T04:28:09.960Z,3.50
2023-09-07T04:30:40.998Z,3.97
2023-09-07T04:33:07.865Z,3.53
2023-09-07T04:35:34.699Z,3.63
2023-09-07T04:38:01.606Z,3.40
2023-09-07T04:40:28.369Z,3.40
2023-09-07T04:42:55.439Z,3.08
2023-09-07T04:45:22.162Z,3.03
2023-09-07T04:47:50.989Z,3.42
2023-09-07T04:50:17.948Z,3.08
2023-09-07T04:52:44.847Z,3.17
2023-09-07T04:55:11.591Z,3.33
2023-09-07T04:57:39.138Z,3.60
2023-09-07T05:00:08.511Z,3.33
2023-09-07T05:02:39.767Z,3.22
2023-09-07T05:05:06.967Z,3.20
2023-09-07T05:07:33.825Z,3.53
2023-09-07T05:10:00.539Z,3.30
2023-09-07T05:12:27.417Z,3.20
2023-09-07T05:14:54.190Z,3.38
2023-09-07T05:17:20.891Z,3.50
2023-09-07T05:19:47.580Z,3.80
2023-09-07T05:22:14.360Z,3.20
2023-09-07T05:24:41.871Z,4.18
2023-09-07T05:27:09.630Z,4.80
2023-09-07T05:29:36.379Z,4.65
2023-09-07T05:32:03.771Z,5.70
2023-09-07T05:34:31.076Z,6.22
2023-09-07T05:36:57.831Z,6.20
2023-09-07T05:39:24.546Z,6.80
2023-09-07T05:41:51.318Z,6.63
2023-09-07T05:44:18.098Z,6.35
2023-09-07T05:46:44.964Z,5.97
2023-09-07T05:49:11.838Z,5.60
2023-09-07T05:51:38.604Z,5.93
2023-09-07T05:54:05.424Z,6.25
2023-09-07T05:56:34.481Z,5.45
2023-09-07T05:59:01.225Z,5.50
2023-09-07T06:01:27.994Z,5.32
2023-09-07T06:03:55.745Z,6.22
2023-09-07T06:06:22.707Z,5.47
2023-09-07T06:08:49.533Z,5.53
2023-09-07T06:11:16.301Z,6.10
2023-09-07T06:13:43.183Z,5.80
2023-09-07T06:16:09.968Z,5.68
2023-09-07T06:18:36.673Z,6.20
2023-09-07T06:21:04.399Z,5.68
2023-09-07T06:23:31.208Z,6.03
2023-09-07T06:25:57.913Z,5.57
2023-09-07T06:28:24.801Z,5.38
2023-09-07T06:30:51.596Z,5.65
2023-09-07T06:33:18.416Z,4.75
2023-09-07T06:35:45.374Z,5.93
2023-09-07T06:38:14.947Z,5.55
2023-09-07T06:40:42.084Z,4.65
2023-09-07T06:43:08.882Z,4.32
2023-09-07T06:45:36.868Z,4.72
2023-09-07T06:48:04.588Z,4.97
2023-09-07T06:50:31.760Z,5.60
2023-09-07T06:52:58.569Z,5.10
2023-09-07T06:55:25.291Z,4.70
2023-09-07T06:57:52.282Z,4.95
2023-09-07T07:00:19.075Z,4.93
2023-09-07T07:02:45.971Z,4.28
2023-09-07T07:05:12.778Z,4.38
2023-09-07T07:07:40.522Z,4.15
2023-09-07T07:10:09.157Z,4.45
2023-09-07T07:12:39.277Z,4.28
2023-09-07T07:15:07.045Z,4.82
2023-09-07T07:17:33.872Z,5.13
2023-09-07T07:20:00.780Z,4.65
2023-09-07T07:22:27.610Z,4.47
2023-09-07T07:24:54.351Z,3.83
2023-09-07T07:27:21.273Z,5.00
2023-09-07T07:29:48.168Z,4.13
2023-09-07T07:32:14.960Z,4.70
2023-09-07T07:34:41.804Z,4.80
2023-09-07T07:37:08.561Z,4.25
2023-09-07T07:39:35.534Z,4.30
2023-09-07T07:42:04.373Z,4.15
2023-09-07T07:44:31.153Z,4.20
2023-09-07T07:46:58.007Z,4.72
2023-09-07T07:49:24.844Z,4.68
2023-09-07T07:51:52.751Z,3.67
2023-09-07T07:54:19.464Z,5.20
2023-09-07T07:56:46.168Z,4.30
2023-09-07T07:59:12.957Z,4.22
2023-09-07T08:01:39.699Z,4.40
2023-09-07T08:04:06.518Z,4.10
2023-09-07T08:06:33.370Z,4.35
2023-09-07T08:09:00.120Z,4.38
2023-09-07T08:11:27.722Z,3.92
2023-09-07T08:13:54.620Z,4.60
2023-09-07T08:16:21.454Z,4.60
2023-09-07T08:18:48.276Z,3.80
2023-09-07T08:21:16.242Z,4.60
2023-09-07T08:23:43.110Z,4.20
2023-09-07T08:26:10.663Z,3.72
2023-09-07T08:28:37.528Z,4.40
2023-09-07T08:31:06.105Z,4.40
2023-09-07T08:33:36.608Z,3.92
2023-09-07T08:36:05.261Z,4.00
2023-09-07T08:38:32.534Z,4.20
2023-09-07T08:41:06.001Z,4.00
2023-09-07T08:43:35.575Z,4.32
2023-09-07T08:46:15.384Z,4.72
2023-09-07T08:48:43.973Z,4.18
2023-09-07T08:51:14.147Z,4.25
2023-09-07T08:53:41.551Z,4.50
2023-09-07T08:56:11.746Z,4.40
2023-09-07T08:58:38.552Z,4.23
2023-09-07T09:01:08.295Z,4.22
2023-09-07T09:03:36.690Z,3.92
2023-09-07T09:06:06.155Z,3.88
2023-09-07T09:08:50.064Z,3.67
2023-09-07T09:11:18.147Z,3.80
2023-09-07T09:13:45.470Z,3.63
2023-09-07T09:16:14.091Z,3.80
2023-09-07T09:18:53.601Z,3.90
2023-09-07T09:21:21.568Z,4.00
2023-09-07T09:23:53.505Z,3.92
2023-09-07T09:26:20.770Z,4.03
2023-09-07T09:28:48.571Z,3.55
2023-09-07T09:31:16.180Z,3.42
2023-09-07T09:33:43.909Z,3.22
2023-09-07T09:36:10.757Z,3.58
2023-09-07T09:38:37.734Z,3.80
2023-09-07T09:41:06.601Z,3.47
2023-09-07T09:43:33.350Z,3.90
2023-09-07T09:46:01.307Z,3.65
2023-09-07T09:48:29.189Z,3.30
2023-09-07T09:50:56.886Z,3.88
2023-09-07T09:53:24.698Z,3.58
2023-09-07T09:55:55.243Z,3.50
2023-09-07T09:58:22.101Z,3.67
2023-09-07T10:00:56.675Z,3.53
2023-09-07T10:03:27.905Z,3.97
2023-09-07T10:05:54.911Z,3.40
2023-09-07T10:08:24.071Z,3.38
2023-09-07T10:10:54.589Z,3.63
2023-09-07T10:13:33.318Z,3.75
2023-09-07T10:16:10.213Z,3.60
2023-09-07T10:18:40.272Z,3.65
2023-09-07T10:21:07.587Z,3.70
2023-09-07T10:23:45.573Z,3.97
2023-09-07T10:26:21.990Z,3.60
2023-09-07T10:28:59.479Z,3.80
2023-09-07T10:31:36.534Z,4.15
2023-09-07T10:34:14.438Z,3.92
2023-09-07T10:36:41.363Z,3.97
2023-09-07T10:39:09.841Z,4.35
2023-09-07T10:41:43.872Z,3.92
2023-09-07T10:44:13.127Z,4.10
2023-09-07T10:46:40.509Z,4.00
2023-09-07T10:49:13.080Z,3.85
2023-09-07T10:51:44.583Z,3.55
2023-09-07T10:54:18.432Z,4.25
2023-09-07T10:56:48.596Z,4.25
2023-09-07T10:59:15.676Z,3.75
2023-09-07T11:01:44.665Z,3.70
2023-09-07T11:04:14.582Z,3.92
2023-09-07T11:06:42.711Z,3.78
2023-09-07T11:09:12.124Z,4.20
2023-09-07T11:11:39.696Z,3.50
2023-09-07T11:14:06.796Z,3.25
2023-09-07T11:16:36.778Z,4.05
2023-09-07T11:19:05.606Z,3.67
2023-09-07T11:21:36.981Z,3.25
2023-09-07T11:24:07.192Z,3.80
2023-09-07T11:26:48.503Z,3.75
2023-09-07T11:29:19.933Z,3.85
2023-09-07T11:31:47.227Z,4.35
2023-09-07T11:34:16.414Z,4.00
2023-09-07T11:36:44.611Z,3.60
2023-09-07T11:39:15.057Z,3.28
2023-09-07T11:41:43.838Z,3.55
2023-09-07T11:44:11.123Z,3.20
2023-09-07T11:46:38.887Z,3.38
2023-09-07T11:49:06.721Z,3.65
2023-09-07T11:51:33.806Z,3.25
2023-09-07T11:54:00.903Z,3.90
2023-09-07T11:56:28.151Z,3.80
2023-09-07T11:58:56.527Z,3.50
2023-09-07T12:01:23.766Z,3.60
2023-09-07T12:03:50.825Z,3.78
2023-09-07T12:06:18.123Z,3.65
2023-09-07T12:09:00.190Z,3.72
2023-09-07T12:11:27.016Z,3.20
2023-09-07T12:13:53.819Z,3.75
2023-09-07T12:16:20.872Z,3.28
2023-09-07T12:18:47.866Z,3.70
2023-09-07T12:21:14.661Z,3.72
2023-09-07T12:23:41.486Z,3.80
2023-09-07T12:26:09.723Z,4.53
2023-09-07T12:28:37.438Z,4.03
2023-09-07T12:31:04.313Z,3.60
2023-09-07T12:33:32.016Z,3.50
2023-09-07T12:35:59.205Z,3.90
2023-09-07T12:38:29.621Z,3.67
2023-09-07T12:40:56.702Z,4.05
2023-09-07T12:43:26.254Z,3.90
2023-09-07T12:45:53.434Z,3.92
2023-09-07T12:48:21.188Z,3.83
2023-09-07T12:50:47.983Z,3.67
2023-09-07T12:53:14.793Z,3.88
2023-09-07T12:55:41.584Z,3.80
2023-09-07T12:58:08.297Z,4.20
2023-09-07T13:00:35.110Z,3.92
2023-09-07T13:03:01.887Z,3.60
2023-09-07T13:05:28.847Z,3.72
2023-09-07T13:07:55.708Z,4.00
2023-09-07T13:10:22.464Z,4.07
2023-09-07T13:12:49.153Z,4.60
2023-09-07T13:15:15.936Z,3.72
2023-09-07T13:17:42.662Z,3.97
2023-09-07T13:20:09.976Z,3.72
2023-09-07T13:22:36.895Z,4.25
2023-09-07T13:25:03.847Z,4.18
2023-09-07T13:27:30.605Z,3.90
2023-09-07T13:29:58.484Z,3.83
2023-09-07T13:32:26.102Z,4.30
2023-09-07T13:34:52.881Z,3.97
2023-09-07T13:37:19.772Z,3.92
2023-09-07T13:39:46.460Z,4.00
2023-09-07T13:42:13.153Z,4.30
2023-09-07T13:44:39.950Z,3.65
2023-09-07T13:47:07.521Z,3.80
2023-09-07T13:49:34.280Z,4.15
2023-09-07T13:52:01.001Z,3.90
2023-09-07T13:54:30.173Z,4.00
2023-09-07T13:56:57.791Z,4.03
2023-09-07T13:59:26.827Z,3.80
2023-09-07T14:01:53.574Z,3.92
2023-09-07T14:04:20.287Z,4.28
2023-09-07T14:06:47.995Z,4.57
2023-09-07T14:09:15.140Z,3.75
2023-09-07T14:11:41.881Z,4.07
2023-09-07T14:14:08.768Z,3.70
2023-09-07T14:16:35.560Z,3.95
2023-09-07T14:19:02.358Z,4.00
2023-09-07T14:21:29.101Z,4.05
2023-09-07T14:23:56.656Z,4.15
2023-09-07T14:26:23.416Z,4.10
2023-09-07T14:28:51.520Z,4.07
2023-09-07T14:31:18.252Z,3.45
2023-09-07T14:33:44.993Z,3.60
2023-09-07T14:36:11.763Z,3.70
2023-09-07T14:38:43.080Z,4.22
2023-09-07T14:41:19.651Z,3.75
2023-09-07T14:43:49.847Z,3.72
2023-09-07T14:46:16.978Z,4.07
2023-09-07T14:48:44.720Z,4.10
2023-09-07T14:51:11.482Z,4.28
2023-09-07T14:53:38.150Z,4.15
2023-09-07T14:56:05.120Z,3.90
2023-09-07T14:58:32.200Z,3.95
2023-09-07T15:00:59.430Z,4.47
2023-09-07T15:03:26.798Z,4.57
2023-09-07T15:05:53.918Z,4.72
2023-09-07T15:08:21.178Z,5.30
2023-09-07T15:10:48.018Z,5.10
2023-09-07T15:13:14.874Z,5.25
2023-09-07T15:15:41.993Z,5.68
2023-09-07T15:18:09.072Z,6.90
2023-09-07T15:20:36.973Z,6.03
2023-09-07T15:23:04.572Z,5.70
2023-09-07T15:25:31.540Z,5.88
2023-09-07T15:27:58.442Z,5.10
2023-09-07T15:30:25.558Z,6.03
2023-09-07T15:32:53.042Z,5.35
2023-09-07T15:35:20.393Z,5.07
2023-09-07T15:37:47.866Z,6.00
2023-09-07T15:40:15.388Z,6.05
2023-09-07T15:42:42.410Z,4.53
2023-09-07T15:45:09.769Z,5.10
2023-09-07T15:47:36.869Z,5.00
2023-09-07T15:50:04.939Z,5.15
2023-09-07T15:52:31.984Z,4.63
2023-09-07T15:54:58.953Z,5.43
2023-09-07T15:57:26.997Z,4.72
2023-09-07T15:59:53.797Z,5.18
2023-09-07T16:02:20.711Z,4.90
2023-09-07T16:04:47.540Z,4.65
2023-09-07T16:07:14.363Z,5.38
2023-09-07T16:09:41.455Z,5.00
2023-09-07T16:12:08.270Z,5.00
2023-09-07T16:14:35.096Z,4.90
2023-09-07T16:17:01.930Z,4.90
2023-09-07T16:19:28.752Z,5.00
2023-09-07T16:21:55.573Z,5.18
2023-09-07T16:24:31.758Z,5.28
2023-09-07T16:26:59.851Z,5.15
2023-09-07T16:29:26.560Z,4.45
2023-09-07T16:31:53.452Z,4.93
2023-09-07T16:34:20.261Z,4.85
2023-09-07T16:36:46.948Z,4.93
2023-09-07T16:39:13.941Z,5.32
2023-09-07T16:41:40.737Z,5.03
2023-09-07T16:44:07.552Z,5.07
2023-09-07T16:46:34.304Z,4.72
2023-09-07T16:49:01.160Z,5.20
2023-09-07T16:51:28.582Z,4.82
2023-09-07T16:53:56.608Z,4.95
2023-09-07T16:56:23.462Z,5.05
2023-09-07T16:59:14.872Z,5.00
2023-09-07T17:01:37.846Z,5.35
2023-09-07T17:04:05.021Z,5.32
2023-09-07T17:06:32.054Z,5.05
2023-09-07T17:08:59.895Z,5.30
2023-09-07T17:11:26.966Z,5.20
2023-09-07T17:14:01.751Z,5.03
2023-09-07T17:16:30.096Z,5.22
2023-09-07T17:18:58.873Z,4.93
2023-09-07T17:21:25.680Z,5.00
2023-09-07T17:23:52.696Z,5.05
2023-09-07T17:26:19.673Z,5.55
2023-09-07T17:28:46.664Z,5.13
2023-09-07T17:31:15.146Z,5.28
2023-09-07T17:33:42.338Z,5.05
2023-09-07T17:36:19.742Z,4.78
2023-09-07T17:38:47.433Z,5.22
2023-09-07T17:41:14.227Z,4.70
2023-09-07T17:43:41.752Z,4.88
2023-09-07T17:46:09.210Z,5.57
2023-09-07T17:48:36.328Z,5.20
2023-09-07T17:51:04.202Z,5.20
2023-09-07T17:53:31.082Z,5.15
2023-09-07T17:55:57.872Z,5.43
2023-09-07T17:58:24.604Z,4.78
2023-09-07T18:00:51.411Z,4.50
2023-09-07T18:03:18.344Z,5.00
2023-09-07T18:05:45.656Z,4.93
2023-09-07T18:08:12.492Z,5.32
2023-09-07T18:10:39.344Z,5.22
2023-09-07T18:13:07.175Z,4.75
2023-09-07T18:15:34.117Z,5.00
2023-09-07T18:18:00.988Z,4.75
2023-09-07T18:20:27.865Z,4.38
2023-09-07T18:22:54.919Z,5.32
2023-09-07T18:25:22.371Z,5.47
2023-09-07T18:27:50.798Z,5.40
2023-09-07T18:30:17.613Z,4.70
2023-09-07T18:32:44.298Z,6.10
2023-09-07T18:35:11.097Z,5.03
2023-09-07T18:37:39.586Z,5.25
2023-09-07T18:40:09.911Z,5.75
2023-09-07T18:42:37.150Z,5.35
2023-09-07T18:45:04.752Z,5.03
2023-09-07T18:47:33.155Z,5.10
2023-09-07T18:50:00.062Z,5.57
2023-09-07T18:52:26.796Z,5.65
2023-09-07T18:54:56.018Z,5.20
2023-09-07T18:57:23.622Z,5.38
2023-09-07T18:59:51.187Z,5.20
2023-09-07T19:02:17.950Z,5.40
2023-09-07T19:04:44.998Z,5.72
2023-09-07T19:07:15.299Z,5.10
2023-09-07T19:09:42.614Z,5.37
2023-09-07T19:12:09.940Z,6.00
2023-09-07T19:14:36.688Z,5.45
2023-09-07T19:17:03.512Z,5.50
2023-09-07T19:19:30.287Z,5.60
2023-09-07T19:21:57.130Z,5.80
2023-09-07T19:24:23.903Z,5.70
2023-09-07T19:26:51.919Z,6.32
2023-09-07T19:29:18.847Z,5.57
2023-09-07T19:31:46.192Z,5.75
2023-09-07T19:34:13.327Z,5.85
2023-09-07T19:36:40.485Z,6.15
2023-09-07T19:39:07.559Z,6.03
2023-09-07T19:41:37.531Z,6.90
2023-09-07T19:44:04.851Z,5.70
2023-09-07T19:46:32.074Z,6.13
2023-09-07T19:48:59.012Z,5.40
2023-09-07T19:51:26.242Z,5.70
2023-09-07T19:53:53.129Z,6.28
2023-09-07T19:56:22.828Z,6.60
2023-09-07T19:58:49.869Z,6.60
2023-09-07T20:01:18.742Z,6.43
2023-09-07T20:03:47.885Z,6.35
2023-09-07T20:06:16.296Z,5.90
2023-09-07T20:08:43.101Z,6.10
2023-09-07T20:11:11.513Z,6.50
2023-09-07T20:13:38.770Z,5.85
2023-09-07T20:16:06.246Z,5.88
2023-09-07T20:18:33.414Z,6.07
2023-09-07T20:21:00.551Z,6.18
2023-09-07T20:23:27.330Z,6.63
2023-09-07T20:25:54.080Z,6.50
2023-09-07T20:28:21.137Z,6.55
2023-09-07T20:30:48.420Z,6.20
2023-09-07T20:33:16.022Z,6.43
2023-09-07T20:35:43.767Z,6.07
2023-09-07T20:38:11.269Z,6.00
2023-09-07T20:40:38.233Z,6.05
2023-09-07T20:43:07.887Z,6.25
2023-09-07T20:45:42.033Z,5.93
2023-09-07T20:48:09.092Z,6.45
2023-09-07T20:50:36.057Z,6.47
2023-09-07T20:53:03.115Z,6.07
2023-09-07T20:55:30.016Z,5.78
2023-09-07T20:57:56.883Z,5.80
2023-09-07T21:00:23.904Z,6.32
2023-09-07T21:02:50.938Z,6.07
2023-09-07T21:05:17.840Z,6.32
2023-09-07T21:07:44.877Z,6.30
2023-09-07T21:10:12.129Z,5.30
2023-09-07T21:12:46.459Z,5.97
2023-09-07T21:15:13.530Z,6.55
2023-09-07T21:17:40.730Z,5.78
2023-09-07T21:20:09.551Z,5.93
2023-09-07T21:22:36.395Z,6.15
2023-09-07T21:25:03.330Z,6.00
2023-09-07T21:27:30.180Z,5.65
2023-09-07T21:29:57.040Z,6.45
2023-09-07T21:32:23.840Z,5.18
2023-09-07T21:34:50.670Z,6.15
2023-09-07T21:37:17.540Z,5.80
2023-09-07T21:39:50.298Z,5.72
2023-09-07T21:42:17.292Z,5.80
2023-09-07T21:44:44.413Z,5.45
2023-09-07T21:47:11.169Z,5.95
2023-09-07T21:49:38.597Z,6.25
2023-09-07T21:52:05.679Z,5.57
2023-09-07T21:54:32.567Z,6.07
2023-09-07T21:56:59.377Z,5.95
2023-09-07T21:59:26.534Z,5.18
2023-09-07T22:01:54.170Z,5.53
2023-09-07T22:04:20.980Z,5.57
2023-09-07T22:06:47.724Z,5.90
2023-09-07T22:09:14.547Z,5.80
2023-09-07T22:11:41.475Z,6.25
2023-09-07T22:14:08.209Z,6.10
2023-09-07T22:16:35.049Z,6.32
2023-09-07T22:19:01.786Z,5.53
2023-09-07T22:21:28.600Z,5.80
2023-09-07T22:23:55.451Z,5.90
2023-09-07T22:26:22.261Z,5.72
2023-09-07T22:28:49.180Z,5.72
2023-09-07T22:31:17.678Z,5.82
2023-09-07T22:33:44.613Z,5.95
2023-09-07T22:36:11.648Z,6.38
2023-09-07T22:38:38.538Z,6.53
2023-09-07T22:41:05.461Z,5.85
2023-09-07T22:43:32.347Z,5.10
2023-09-07T22:45:59.087Z,5.28
2023-09-07T22:48:25.890Z,5.28
2023-09-07T22:50:52.672Z,5.20
2023-09-07T22:53:23.047Z,5.57
2023-09-07T22:55:50.578Z,6.03
2023-09-07T22:58:18.993Z,5.13
2023-09-07T23:00:49.244Z,5.50
2023-09-07T23:03:16.580Z,5.87
2023-09-07T23:05:44.376Z,6.00
2023-09-07T23:08:16.612Z,6.63
2023-09-07T23:10:44.021Z,5.82
2023-09-07T23:13:11.569Z,5.72
2023-09-07T23:15:39.341Z,5.78
2023-09-07T23:18:06.917Z,6.00
2023-09-07T23:20:33.976Z,5.95
2023-09-07T23:23:00.937Z,6.00
2023-09-07T23:25:27.996Z,5.93
2023-09-07T23:27:54.734Z,5.15
2023-09-07T23:30:21.978Z,5.45
2023-09-07T23:32:50.189Z,5.95
2023-09-07T23:35:21.606Z,5.80
2023-09-07T23:37:48.784Z,6.18
2023-09-07T23:40:15.605Z,5.43
2023-09-07T23:42:43.257Z,4.80
2023-09-07T23:45:11.021Z,5.63
2023-09-07T23:47:38.809Z,5.13
2023-09-07T23:50:06.555Z,5.57
2023-09-07T23:52:34.315Z,5.65
2023-09-07T23:55:01.933Z,5.60
2023-09-07T23:57:29.246Z,5.20
2023-09-07T23:59:59.342Z,5.78
